Time;durP1;ratioP1;P1;durP2;ratioP2;P2;SDS_P1;SDS_P2;PMS_P1;PMS_P2;Temp;Humidity;BMP_temperature;BMP_pressure;BME280_temperature;BME280_humidity;BME280_pressure;Samples;Min_cycle;Max_cycle;Signal;HPM_P1;HPM_P2
2022/01/23 00:00:40;;;;;;;5.73;4.40;;;;;;;-1.14;100.00;100602.91;4829977;29;20544;-81
2022/01/23 00:03:15;;;;;;;6.23;4.40;;;;;;;-1.07;100.00;100602.28;4814700;29;20205;-81
2022/01/23 00:05:46;;;;;;;5.50;4.10;;;;;;;-1.15;100.00;100593.34;4829556;29;20185;-81
2022/01/23 00:08:17;;;;;;;4.97;4.40;;;;;;;-1.03;100.00;100613.41;4829680;29;20201;-81
2022/01/23 00:10:44;;;;;;;6.37;4.57;;;;;;;-1.16;100.00;100600.38;4829218;29;20200;-80
2022/01/23 00:13:17;;;;;;;6.73;4.70;;;;;;;-1.14;100.00;100605.53;4814509;29;20201;-81
2022/01/23 00:18:30;;;;;;;5.83;4.70;;;;;;;-1.17;100.00;100592.63;4845861;29;20196;-80
2022/01/23 00:20:57;;;;;;;7.20;5.17;;;;;;;-1.14;100.00;100598.47;4829392;29;20533;-81
2022/01/23 00:31:44;;;;;;;5.40;4.63;;;;;;;-0.80;100.00;100596.63;4844677;29;20534;-81
2022/01/23 00:34:11;;;;;;;5.80;4.97;;;;;;;-0.46;100.00;100602.59;4829352;29;20233;-81
2022/01/23 00:36:38;;;;;;;6.87;5.37;;;;;;;-0.37;100.00;100596.56;4813939;29;20201;-81
2022/01/23 00:39:06;;;;;;;6.00;5.37;;;;;;;-0.27;100.00;100608.03;4828791;29;20236;-81
2022/01/23 00:41:33;;;;;;;6.77;5.60;;;;;;;-0.25;100.00;100600.00;4844091;29;20202;-81
2022/01/23 00:44:01;;;;;;;9.20;5.80;;;;;;;-0.23;100.00;100606.81;4828996;29;20209;-81
2022/01/23 00:46:37;;;;;;;7.80;5.57;;;;;;;-0.16;100.00;100601.88;4844002;29;20197;-81
2022/01/23 00:51:37;;;;;;;7.63;5.50;;;;;;;-0.23;100.00;100598.06;4843539;29;20659;-81
2022/01/23 00:54:05;;;;;;;6.60;5.57;;;;;;;-0.21;100.00;100604.91;4844231;29;20608;-81
2022/01/23 00:56:33;;;;;;;6.50;5.47;;;;;;;-0.18;100.00;100606.44;4828599;29;20197;-81
2022/01/23 00:59:01;;;;;;;7.03;6.07;;;;;;;-0.15;100.00;100609.66;4829011;29;20310;-81
2022/01/23 01:01:28;;;;;;;8.53;7.37;;;;;;;-0.31;100.00;100603.13;4828670;29;20516;-81
2022/01/23 01:03:55;;;;;;;7.10;6.00;;;;;;;-0.24;100.00;100593.78;4843946;29;20201;-81
2022/01/23 01:06:23;;;;;;;6.93;6.10;;;;;;;-0.24;100.00;100601.69;4843995;29;20208;-80
2022/01/23 01:08:51;;;;;;;9.90;6.47;;;;;;;-0.14;100.00;100576.25;4828728;29;20235;-81
2022/01/23 01:33:54;;;;;;;9.07;6.70;;;;;;;-0.08;100.00;100602.91;4816798;29;20203;-81
2022/01/23 01:39:05;;;;;;;7.80;6.37;;;;;;;-0.05;100.00;100594.75;4842990;29;20235;-81
2022/01/23 01:41:39;;;;;;;7.37;6.07;;;;;;;0.06;100.00;100604.38;4827862;29;20196;-81
2022/01/23 01:44:07;;;;;;;8.00;6.63;;;;;;;0.02;100.00;100596.88;4843117;29;20511;-81
2022/01/23 01:46:49;;;;;;;10.30;6.90;;;;;;;0.18;100.00;100582.28;4843545;29;20197;-81
2022/01/23 01:49:27;;;;;;;8.37;7.00;;;;;;;0.13;100.00;100571.31;4827896;29;20207;-81
2022/01/23 01:51:57;;;;;;;9.33;7.00;;;;;;;-0.07;100.00;100583.50;4827532;29;20212;-81
2022/01/23 01:54:26;;;;;;;8.67;7.57;;;;;;;-0.01;100.00;100574.25;4827663;29;20506;-81
2022/01/23 01:57:05;;;;;;;8.23;7.03;;;;;;;-0.11;100.00;100574.19;4827743;29;20234;-80
2022/01/23 02:10:49;;;;;;;7.93;7.13;;;;;;;0.11;100.00;100604.84;4842682;29;20223;-82
2022/01/23 02:13:21;;;;;;;7.53;6.73;;;;;;;0.43;100.00;100599.47;4798025;29;20525;-81
2022/01/23 02:22:30;;;;;;;8.60;7.53;;;;;;;0.36;100.00;100579.88;4842597;29;20627;-81
2022/01/23 02:52:54;;;;;;;8.17;6.30;;;;;;;0.49;100.00;100567.31;4787703;29;20648;-81
2022/01/23 02:55:27;;;;;;;8.23;6.57;;;;;;;0.38;100.00;100572.66;4826735;29;20197;-81
2022/01/23 02:58:03;;;;;;;7.30;6.37;;;;;;;0.27;100.00;100578.88;4812498;29;20192;-81
2022/01/23 03:00:36;;;;;;;9.33;6.77;;;;;;;0.26;100.00;100579.00;4826955;29;20243;-81
2022/01/23 03:03:24;;;;;;;6.83;6.13;;;;;;;0.18;100.00;100581.44;4829721;29;20596;-81
2022/01/23 03:14:36;;;;;;;7.37;6.27;;;;;;;0.03;100.00;100567.78;4826355;29;20197;-81
2022/01/23 03:25:37;;;;;;;8.23;6.73;;;;;;;0.14;100.00;100580.84;4826294;29;20253;-81
2022/01/23 03:30:37;;;;;;;8.83;7.23;;;;;;;0.00;100.00;100571.47;4826602;29;20490;-81
2022/01/23 03:33:04;;;;;;;8.77;6.40;;;;;;;0.18;100.00;100586.72;4841620;29;20217;-81
2022/01/23 03:35:31;;;;;;;8.13;6.90;;;;;;;0.14;100.00;100583.47;4841247;29;20515;-81
2022/01/23 03:37:58;;;;;;;8.20;7.03;;;;;;;0.24;100.00;100586.19;4841358;29;20656;-81
2022/01/23 03:40:25;;;;;;;9.23;8.00;;;;;;;0.29;100.00;100584.00;4841578;29;20581;-81
2022/01/23 03:42:57;;;;;;;9.13;7.33;;;;;;;0.32;100.00;100575.84;4826666;29;20212;-81
2022/01/23 03:50:45;;;;;;;7.73;6.93;;;;;;;0.73;100.00;100591.56;4826489;29;20511;-80
2022/01/23 03:53:17;;;;;;;8.30;7.27;;;;;;;0.71;100.00;100597.91;4811744;29;20269;-82
2022/01/23 03:55:44;;;;;;;7.50;6.80;;;;;;;0.76;100.00;100593.91;4825960;29;20208;-80
2022/01/23 03:58:11;;;;;;;6.37;5.77;;;;;;;0.88;100.00;100602.59;4841555;29;20609;-81
2022/01/23 04:00:38;;;;;;;5.97;5.37;;;;;;;1.01;100.00;100602.34;4826324;29;20212;-81
2022/01/23 04:03:06;;;;;;;5.27;4.77;;;;;;;0.99;100.00;100580.50;4841263;29;20200;-81
2022/01/23 04:05:33;;;;;;;3.83;3.53;;;;;;;1.03;100.00;100595.94;4841222;29;20252;-81
2022/01/23 04:08:01;;;;;;;3.20;2.90;;;;;;;1.10;100.00;100583.06;4811461;29;20197;-81
2022/01/23 04:10:28;;;;;;;3.90;2.70;;;;;;;1.27;100.00;100591.13;4826081;29;20544;-81
2022/01/23 04:13:25;;;;;;;2.67;2.47;;;;;;;1.20;100.00;100595.31;4811657;29;20270;-81
2022/01/23 04:21:19;;;;;;;2.20;2.00;;;;;;;1.36;100.00;100600.03;4826105;29;20192;-81
2022/01/23 04:32:19;;;;;;;1.90;1.53;;;;;;;1.61;100.00;100606.59;4844276;29;20668;-82
2022/01/23 04:35:05;;;;;;;1.50;1.40;;;;;;;1.80;100.00;100611.88;4829293;29;20204;-82
2022/01/23 04:46:31;;;;;;;1.17;1.07;;;;;;;2.08;100.00;100607.56;4828793;29;20297;-81
2022/01/23 04:59:49;;;;;;;1.00;1.00;;;;;;;2.08;100.00;100612.84;4829079;29;20291;-81
2022/01/23 05:05:59;;;;;;;1.20;1.10;;;;;;;2.00;100.00;100623.28;4762936;30;20211;-82
2022/01/23 05:08:51;;;;;;;1.67;1.30;;;;;;;1.85;100.00;100630.81;4756394;30;20581;-81
2022/01/23 05:11:31;;;;;;;1.67;1.37;;;;;;;1.69;100.00;100628.69;4842352;29;20539;-82
2022/01/23 05:14:13;;;;;;;1.60;1.50;;;;;;;1.60;100.00;100631.34;4829328;29;20205;-81
2022/01/23 05:16:39;;;;;;;1.40;1.30;;;;;;;1.72;100.00;100631.09;4828500;29;20211;-82
2022/01/23 05:19:07;;;;;;;1.43;1.33;;;;;;;1.70;100.00;100632.19;4829130;29;20193;-82
2022/01/23 05:24:21;;;;;;;1.37;1.27;;;;;;;1.58;100.00;100639.41;4828862;29;20196;-82
2022/01/23 05:26:47;;;;;;;1.30;1.20;;;;;;;1.61;100.00;100633.00;4829383;29;20189;-81
2022/01/23 05:29:15;;;;;;;1.20;1.10;;;;;;;1.50;100.00;100636.59;4843758;29;20192;-81
2022/01/23 05:31:42;;;;;;;1.40;1.30;;;;;;;1.37;100.00;100622.84;4828882;29;20201;-82
2022/01/23 05:34:10;;;;;;;1.40;1.30;;;;;;;1.33;100.00;100639.91;4828527;29;20311;-82
2022/01/23 05:36:38;;;;;;;1.70;1.30;;;;;;;1.44;100.00;100634.53;4813508;29;20225;-82
2022/01/23 05:39:06;;;;;;;1.37;1.20;;;;;;;1.37;100.00;100627.28;4835428;29;20293;-82
2022/01/23 05:41:34;;;;;;;1.43;1.33;;;;;;;1.36;100.00;100641.44;4829791;29;20537;-83
2022/01/23 05:44:02;;;;;;;2.83;1.43;;;;;;;1.26;100.00;100646.72;4844390;29;20284;-82
2022/01/23 05:46:29;;;;;;;1.63;1.50;;;;;;;1.22;100.00;100645.31;4843946;29;20205;-82
2022/01/23 05:49:07;;;;;;;1.43;1.33;;;;;;;1.14;100.00;100653.91;4830623;29;20653;-81
2022/01/23 05:52:07;;;;;;;1.60;1.50;;;;;;;1.29;100.00;100668.41;4831824;29;20609;-82
2022/01/23 05:54:58;;;;;;;2.53;1.90;;;;;;;1.31;100.00;100666.44;4843591;29;20207;-82
2022/01/23 05:57:44;;;;;;;2.30;2.10;;;;;;;1.24;100.00;100667.97;4830691;29;20291;-82
2022/01/23 06:00:19;;;;;;;2.37;2.17;;;;;;;1.14;100.00;100669.75;4858659;29;20200;-82
2022/01/23 06:02:52;;;;;;;2.50;2.30;;;;;;;1.18;100.00;100676.41;4844288;29;20265;-82
2022/01/23 06:05:28;;;;;;;3.53;2.40;;;;;;;1.11;100.00;100663.91;4843233;29;20209;-82
2022/01/23 06:07:59;;;;;;;4.00;2.30;;;;;;;1.09;100.00;100677.22;4843027;29;20257;-81
2022/01/23 06:10:27;;;;;;;2.50;2.30;;;;;;;1.12;100.00;100681.41;4843091;29;20201;-81
2022/01/23 06:12:55;;;;;;;2.77;2.57;;;;;;;1.09;100.00;100686.94;4842628;29;20224;-82
2022/01/23 06:15:22;;;;;;;3.60;3.30;;;;;;;1.05;100.00;100688.19;4857916;29;20507;-81
2022/01/23 06:17:49;;;;;;;3.83;3.10;;;;;;;1.03;100.00;100693.59;4827808;29;20483;-82
2022/01/23 06:20:34;;;;;;;3.60;3.07;;;;;;;0.96;100.00;100700.38;4856263;29;20212;-81
2022/01/23 06:23:34;;;;;;;3.13;2.83;;;;;;;0.87;100.00;100703.81;4803028;29;20197;-81
2022/01/23 06:26:21;;;;;;;3.40;2.87;;;;;;;0.87;100.00;100698.53;4842400;29;20722;-82
2022/01/23 06:28:59;;;;;;;3.03;2.60;;;;;;;0.88;100.00;100706.31;4857827;29;20501;-82
2022/01/23 06:31:26;;;;;;;4.33;3.20;;;;;;;0.70;100.00;100707.88;4842821;29;20196;-82
2022/01/23 06:33:53;;;;;;;3.57;2.60;;;;;;;0.77;100.00;100705.56;4858195;29;20220;-82
2022/01/23 06:36:19;;;;;;;2.73;2.53;;;;;;;0.61;100.00;100716.56;4842330;29;20216;-82
2022/01/23 06:38:46;;;;;;;3.13;2.83;;;;;;;0.74;100.00;100706.66;4842634;29;20335;-81
2022/01/23 06:41:14;;;;;;;3.30;3.00;;;;;;;0.77;100.00;100721.38;4843020;29;20530;-82
2022/01/23 06:44:00;;;;;;;3.80;3.20;;;;;;;0.77;100.00;100724.84;4843440;29;20246;-82
2022/01/23 06:46:33;;;;;;;3.13;2.87;;;;;;;0.72;100.00;100723.56;4828624;29;20197;-82
2022/01/23 06:49:02;;;;;;;3.30;3.00;;;;;;;0.69;100.00;100721.22;4827642;29;20197;-82
2022/01/23 06:51:29;;;;;;;3.50;3.07;;;;;;;0.77;100.00;100732.78;4827886;29;20205;-81
2022/01/23 06:53:56;;;;;;;3.80;3.50;;;;;;;0.71;100.00;100741.19;4842803;29;20273;-82
2022/01/23 06:56:24;;;;;;;5.10;3.80;;;;;;;0.70;100.00;100744.78;4842343;29;20199;-82
2022/01/23 06:58:51;;;;;;;5.10;4.40;;;;;;;0.77;100.00;100740.69;4842452;29;20193;-82
2022/01/23 07:01:18;;;;;;;4.00;3.60;;;;;;;0.80;100.00;100744.84;4857766;29;20201;-82
2022/01/23 07:03:48;;;;;;;3.80;3.50;;;;;;;0.81;100.00;100746.53;4827887;29;20197;-82
2022/01/23 07:06:39;;;;;;;4.20;3.80;;;;;;;0.72;100.00;100752.59;4839687;29;20596;-82
2022/01/23 07:09:15;;;;;;;4.10;3.70;;;;;;;0.77;100.00;100738.06;4857620;29;20197;-82
2022/01/23 07:12:01;;;;;;;6.57;4.60;;;;;;;0.74;100.00;100756.78;4842554;29;20205;-81
2022/01/23 07:14:46;;;;;;;5.07;4.37;;;;;;;0.70;100.00;100755.34;4855187;29;20609;-82
2022/01/23 07:17:40;;;;;;;4.93;4.43;;;;;;;0.76;100.00;100760.13;4846976;29;20209;-82
2022/01/23 07:20:21;;;;;;;5.00;4.50;;;;;;;0.77;100.00;100761.78;4841928;29;20196;-81
2022/01/23 07:22:49;;;;;;;6.47;5.60;;;;;;;0.81;100.00;100765.00;4842101;29;20766;-82
2022/01/23 07:25:16;;;;;;;5.33;4.83;;;;;;;0.56;100.00;100739.84;4826423;29;20209;-81
2022/01/23 07:27:52;;;;;;;8.63;4.63;;;;;;;0.81;100.00;100749.16;4857206;29;20207;-81
2022/01/23 07:30:27;;;;;;;5.10;4.37;;;;;;;0.86;100.00;100757.53;4827696;29;20204;-82
2022/01/23 07:32:54;;;;;;;5.57;4.50;;;;;;;0.88;100.00;100774.94;4841745;29;20628;-82
2022/01/23 07:35:22;;;;;;;7.00;4.20;;;;;;;1.06;100.00;100764.59;4841716;29;20208;-82
2022/01/23 07:37:48;;;;;;;16.60;5.03;;;;;;;1.01;100.00;100758.03;4857486;29;20196;-82
2022/01/23 07:40:34;;;;;;;4.57;4.03;;;;;;;1.03;100.00;100764.00;4855360;29;20197;-82
2022/01/23 07:43:01;;;;;;;4.40;4.00;;;;;;;0.91;100.00;100773.81;4842108;29;20288;-82
2022/01/23 07:45:53;;;;;;;5.77;5.17;;;;;;;0.91;100.00;100773.81;4854242;29;20201;-82
2022/01/23 07:48:42;;;;;;;5.67;4.83;;;;;;;0.84;100.00;100770.03;4845186;29;20197;-82
2022/01/23 07:51:25;;;;;;;4.97;4.47;;;;;;;0.91;100.00;100779.09;4842064;29;20242;-82
2022/01/23 07:54:28;;;;;;;4.50;4.00;;;;;;;0.91;100.00;100780.91;4786216;30;20214;-82
2022/01/23 07:57:13;;;;;;;5.07;4.37;;;;;;;0.86;100.00;100794.47;4837625;29;20292;-82
2022/01/23 08:00:09;;;;;;;4.63;4.23;;;;;;;0.92;100.00;100799.25;4839455;29;20276;-82
2022/01/23 08:02:42;;;;;;;4.87;4.37;;;;;;;0.93;100.00;100797.44;4859303;29;20237;-82
2022/01/23 08:05:40;;;;;;;4.90;4.23;;;;;;;0.84;100.00;100793.78;4860554;29;20349;-82
2022/01/23 08:08:43;;;;;;;4.87;4.20;;;;;;;0.96;100.00;100803.28;4855381;29;20197;-82
2022/01/23 08:11:33;;;;;;;5.30;4.57;;;;;;;0.91;100.00;100794.91;4845026;29;20291;-82
2022/01/23 08:13:59;;;;;;;5.27;4.60;;;;;;;0.98;100.00;100801.34;4860536;29;20235;-82
2022/01/23 08:16:26;;;;;;;5.33;4.50;;;;;;;1.02;100.00;100799.31;4860291;29;20199;-81
2022/01/23 08:18:53;;;;;;;5.30;4.30;;;;;;;0.93;100.00;100798.28;4845413;29;20637;-82
2022/01/23 08:21:20;;;;;;;5.83;4.50;;;;;;;0.82;100.00;100787.78;4845207;29;20203;-82
2022/01/23 08:23:46;;;;;;;5.03;4.53;;;;;;;0.91;100.00;100794.91;4860555;29;20185;-82
2022/01/23 08:26:14;;;;;;;6.10;5.50;;;;;;;0.93;100.00;100787.72;4860064;29;20274;-82
2022/01/23 08:28:41;;;;;;;6.47;5.50;;;;;;;0.86;100.00;100776.00;4844954;29;20247;-82
2022/01/23 08:31:07;;;;;;;7.20;6.13;;;;;;;0.96;100.00;100790.09;4844778;29;20616;-82
2022/01/23 08:33:34;;;;;;;6.40;5.20;;;;;;;1.10;100.00;100789.75;4844636;29;20309;-82
2022/01/23 08:36:01;;;;;;;5.23;4.73;;;;;;;1.08;100.00;100786.41;4844413;29;20197;-82
2022/01/23 08:38:28;;;;;;;6.70;5.80;;;;;;;1.13;100.00;100783.38;4844508;29;20513;-81
2022/01/23 08:43:40;;;;;;;6.03;4.83;;;;;;;1.04;100.00;100777.06;4857796;29;20808;-82
2022/01/23 08:46:08;;;;;;;5.17;4.60;;;;;;;1.05;100.00;100783.19;4844270;29;20209;-81
2022/01/23 08:48:35;;;;;;;5.67;4.87;;;;;;;1.08;100.00;100788.19;4859648;29;20193;-82
2022/01/23 08:51:01;;;;;;;5.67;4.63;;;;;;;1.13;100.00;100796.56;4859717;29;20577;-81
2022/01/23 08:53:28;;;;;;;5.90;5.17;;;;;;;1.01;100.00;100790.53;4844144;29;20212;-82
2022/01/23 08:55:55;;;;;;;5.87;4.97;;;;;;;1.17;100.00;100782.97;4859407;29;20255;-82
2022/01/23 08:58:22;;;;;;;6.70;5.53;;;;;;;1.16;100.00;100791.88;4853382;29;20209;-82
2022/01/23 09:00:48;;;;;;;6.40;5.60;;;;;;;1.20;100.00;100790.66;4825442;29;20319;-82
2022/01/23 09:03:15;;;;;;;6.07;5.47;;;;;;;1.21;100.00;100792.31;4840810;29;20194;-82
2022/01/23 09:05:42;;;;;;;6.10;5.50;;;;;;;1.32;100.00;100786.94;4825490;29;20523;-82
2022/01/23 09:08:09;;;;;;;6.13;5.47;;;;;;;1.23;100.00;100794.81;4825665;29;20201;-82
2022/01/23 09:10:52;;;;;;;5.53;4.80;;;;;;;1.18;100.00;100789.94;4825836;29;20202;-82
2022/01/23 09:13:32;;;;;;;4.87;4.33;;;;;;;1.22;100.00;100785.22;4838575;29;20213;-81
2022/01/23 09:16:00;;;;;;;4.17;3.77;;;;;;;1.26;100.00;100798.03;4824925;29;20300;-82
2022/01/23 09:18:27;;;;;;;4.20;3.80;;;;;;;1.21;100.00;100815.25;4839961;29;20208;-81
2022/01/23 09:20:54;;;;;;;4.03;3.63;;;;;;;0.99;100.00;100821.50;4840474;29;20201;-81
2022/01/23 09:23:20;;;;;;;4.40;3.83;;;;;;;0.97;100.00;100825.25;4840991;29;20216;-81
2022/01/23 09:25:47;;;;;;;6.17;4.27;;;;;;;0.88;100.00;100826.84;4840256;29;20217;-81
2022/01/23 09:28:15;;;;;;;4.57;4.13;;;;;;;1.00;100.00;100831.09;4840452;29;20533;-81
2022/01/23 09:30:44;;;;;;;6.17;4.60;;;;;;;0.93;100.00;100839.66;4824746;29;20213;-81
2022/01/23 09:33:11;;;;;;;5.50;4.93;;;;;;;1.02;100.00;100837.09;4839791;29;20538;-81
2022/01/23 09:35:38;;;;;;;5.80;5.20;;;;;;;1.01;100.00;100827.50;4841848;29;20198;-82
2022/01/23 09:38:05;;;;;;;6.37;5.73;;;;;;;1.08;100.00;100826.00;4826733;29;20292;-81
2022/01/23 09:40:32;;;;;;;7.20;6.50;;;;;;;1.00;100.00;100831.09;4809722;29;20579;-82
2022/01/23 09:43:06;;;;;;;7.30;6.43;;;;;;;1.04;100.00;100839.56;4825176;29;20199;-82
2022/01/23 09:45:33;;;;;;;6.80;6.10;;;;;;;1.01;100.00;100832.78;4810086;29;20226;-82
2022/01/23 09:48:01;;;;;;;6.97;5.60;;;;;;;1.18;100.00;100834.81;4810075;29;20292;-82
2022/01/23 09:50:29;;;;;;;8.20;7.40;;;;;;;1.17;100.00;100838.41;4825029;29;20185;-81
2022/01/23 09:52:57;;;;;;;10.40;8.87;;;;;;;1.14;100.00;100827.28;4809715;29;20193;-82
2022/01/23 09:55:26;;;;;;;15.80;11.30;;;;;;;1.02;100.00;100809.84;4809618;29;20555;-81
2022/01/23 09:57:53;;;;;;;9.90;8.90;;;;;;;1.18;100.00;100831.34;4809938;29;20225;-81
2022/01/23 10:00:24;;;;;;;7.83;7.03;;;;;;;1.23;100.00;100834.41;4825226;29;20217;-81
2022/01/23 10:02:51;;;;;;;9.23;8.17;;;;;;;1.27;100.00;100825.25;4838751;29;20201;-81
2022/01/23 10:05:19;;;;;;;8.10;7.30;;;;;;;1.28;100.00;100842.78;4842957;29;20185;-80
2022/01/23 10:07:46;;;;;;;8.30;7.43;;;;;;;1.28;100.00;100816.38;4842936;29;20193;-81
2022/01/23 10:10:19;;;;;;;8.27;7.47;;;;;;;1.30;100.00;100825.03;4828383;29;20277;-81
2022/01/23 10:12:51;;;;;;;8.40;7.50;;;;;;;1.31;100.00;100818.75;4842891;29;20205;-81
2022/01/23 10:15:19;;;;;;;8.43;7.63;;;;;;;1.39;100.00;100829.50;4842638;29;20644;-81
2022/01/23 10:17:46;;;;;;;19.43;11.80;;;;;;;1.56;100.00;100831.53;4811926;29;20197;-81
2022/01/23 10:20:14;;;;;;;20.33;12.50;;;;;;;1.52;100.00;100835.41;4842734;29;20201;-81
2022/01/23 10:22:44;;;;;;;28.00;12.87;;;;;;;1.38;100.00;100817.28;4842976;29;20185;-81
2022/01/23 10:25:22;;;;;;;13.47;10.50;;;;;;;1.52;100.00;100827.47;4811254;29;20197;-81
2022/01/23 10:28:08;;;;;;;11.53;10.23;;;;;;;1.58;100.00;100831.41;4842733;29;20199;-81
2022/01/23 10:30:41;;;;;;;16.07;8.90;;;;;;;1.67;100.00;100827.97;4827661;29;20182;-81
2022/01/23 10:33:24;;;;;;;15.20;13.50;;;;;;;1.77;100.00;100831.47;4812872;29;20201;-82
2022/01/23 10:36:02;;;;;;;19.47;17.40;;;;;;;1.80;100.00;100827.72;4830572;29;20201;-81
2022/01/23 10:38:43;;;;;;;11.57;10.37;;;;;;;1.77;100.00;100828.84;4843387;29;20240;-81
2022/01/23 10:49:54;;;;;;;10.13;9.13;;;;;;;2.07;100.00;100833.22;4842708;29;20204;-81
2022/01/23 10:52:38;;;;;;;9.80;8.80;;;;;;;2.18;100.00;100830.47;4843466;29;20288;-81
2022/01/23 10:55:24;;;;;;;13.27;10.60;;;;;;;2.17;100.00;100828.78;4841838;29;20201;-81
2022/01/23 10:57:54;;;;;;;11.33;10.13;;;;;;;2.19;100.00;100809.16;4842522;29;20389;-82
2022/01/23 11:00:25;;;;;;;9.33;8.40;;;;;;;2.31;100.00;100822.25;4842025;29;20582;-81
2022/01/23 11:02:53;;;;;;;9.83;8.73;;;;;;;2.43;100.00;100813.22;4842074;29;20190;-80
2022/01/23 11:05:22;;;;;;;10.57;9.47;;;;;;;2.44;100.00;100820.19;4825876;29;20274;-81
2022/01/23 11:07:49;;;;;;;10.67;9.63;;;;;;;2.44;100.00;100793.72;4838211;29;20653;-81
2022/01/23 11:10:18;;;;;;;11.43;10.23;;;;;;;2.59;100.00;100805.56;4823683;29;20193;-81
2022/01/23 11:18:05;;;;;;;9.10;8.23;;;;;;;2.77;100.00;100803.88;4808253;29;20198;-80
2022/01/23 11:20:38;;;;;;;10.17;9.13;;;;;;;2.88;100.00;100806.38;4838709;29;20193;-81
2022/01/23 11:23:22;;;;;;;11.33;10.13;;;;;;;3.09;100.00;100804.38;4823461;29;20506;-81
2022/01/23 11:25:55;;;;;;;9.70;8.80;;;;;;;3.27;100.00;100801.81;4808028;29;20198;-81
2022/01/23 11:28:37;;;;;;;9.17;8.17;;;;;;;3.37;100.00;100801.78;4824419;29;20204;-81
2022/01/23 11:31:09;;;;;;;50.07;9.97;;;;;;;3.37;100.00;100794.69;4837956;29;20535;-81
2022/01/23 11:33:36;;;;;;;9.30;8.40;;;;;;;3.55;100.00;100800.03;4823230;29;20201;-81
2022/01/23 11:36:04;;;;;;;10.57;8.43;;;;;;;3.59;100.00;100798.78;4840083;29;20198;-80
2022/01/23 11:38:31;;;;;;;9.27;8.30;;;;;;;3.62;100.00;100781.75;4842262;29;20570;-81
2022/01/23 11:55:32;;;;;;;12.63;11.17;;;;;;;4.59;100.00;100783.59;4832101;29;20268;-81
2022/01/23 11:58:00;;;;;;;9.03;7.90;;;;;;;4.69;100.00;100783.50;4830077;29;20185;-81
2022/01/23 12:00:33;;;;;;;13.43;11.67;;;;;;;4.66;100.00;100789.97;4814874;29;20208;-81
2022/01/23 12:03:18;;;;;;;11.47;10.10;;;;;;;4.71;100.00;100778.91;4829620;29;20209;-81
2022/01/23 12:05:46;;;;;;;6.73;6.00;;;;;;;4.66;100.00;100773.22;4829644;29;20189;-81
2022/01/23 12:08:19;;;;;;;4.20;3.80;;;;;;;4.63;100.00;100774.34;4844689;29;20554;-81
2022/01/23 12:17:24;;;;;;;3.50;3.20;;;;;;;4.62;100.00;100777.97;4844454;29;20201;-81
2022/01/23 12:19:53;;;;;;;4.57;3.83;;;;;;;4.59;100.00;100774.78;4829574;29;20197;-81
2022/01/23 12:22:34;;;;;;;3.90;3.50;;;;;;;4.41;100.00;100767.69;4829288;29;20211;-80
2022/01/23 12:25:22;;;;;;;4.27;3.87;;;;;;;4.36;100.00;100771.78;4844503;29;20200;-80
2022/01/23 12:28:08;;;;;;;4.60;4.20;;;;;;;4.33;100.00;100785.34;4829356;29;20596;-81
2022/01/23 12:30:35;;;;;;;3.50;3.20;;;;;;;4.47;100.00;100768.91;4844469;29;20660;-81
2022/01/23 12:33:09;;;;;;;3.30;2.97;;;;;;;4.68;100.00;100764.09;4844360;29;20205;-81
2022/01/23 12:35:41;;;;;;;4.10;3.67;;;;;;;4.83;100.00;100773.16;4844325;29;20217;-81
2022/01/23 12:38:13;;;;;;;3.60;3.17;;;;;;;4.88;100.00;100762.09;4803629;29;20209;-80
2022/01/23 12:40:46;;;;;;;3.63;3.33;;;;;;;4.94;100.00;100757.97;4839085;29;20524;-80
2022/01/23 12:43:17;;;;;;;3.27;2.97;;;;;;;5.02;100.00;100779.28;4826863;29;20295;-81
2022/01/23 12:45:59;;;;;;;3.53;3.23;;;;;;;5.09;100.00;100762.53;4813791;29;20205;-81
2022/01/23 12:48:26;;;;;;;4.00;2.90;;;;;;;5.19;100.00;100760.63;4844413;29;20182;-80
2022/01/23 12:50:58;;;;;;;3.87;3.47;;;;;;;5.10;100.00;100758.06;4844127;29;20241;-81
2022/01/23 12:53:45;;;;;;;4.60;4.20;;;;;;;5.01;100.00;100749.22;4828892;29;20531;-80
2022/01/23 12:56:14;;;;;;;4.90;3.40;;;;;;;4.94;100.00;100765.94;4844012;29;20308;-81
2022/01/23 12:58:41;;;;;;;3.80;3.50;;;;;;;5.04;100.00;100758.72;4844344;29;20276;-80
2022/01/23 13:01:17;;;;;;;3.37;3.07;;;;;;;4.94;100.00;100757.97;4828919;29;21027;-80
2022/01/23 13:03:57;;;;;;;3.80;3.50;;;;;;;4.90;100.00;100765.41;4844300;29;20553;-81
2022/01/23 13:06:54;;;;;;;3.70;3.40;;;;;;;4.76;100.00;100764.13;4843858;29;20575;-81
2022/01/23 13:12:31;;;;;;;4.90;4.40;;;;;;;4.71;100.00;100760.31;4830031;29;20185;-80
2022/01/23 13:29:54;;;;;;;4.93;4.10;;;;;;;4.40;100.00;100747.44;4843911;29;20173;-80
2022/01/23 13:32:23;;;;;;;4.90;4.40;;;;;;;4.41;100.00;100754.41;4843747;29;20230;-81
2022/01/23 13:35:03;;;;;;;5.13;3.83;;;;;;;4.47;100.00;100757.44;4827961;29;20715;-80
2022/01/23 13:37:34;;;;;;;4.97;4.47;;;;;;;4.42;100.00;100752.59;4842981;29;20220;-81
2022/01/23 13:40:14;;;;;;;4.60;4.17;;;;;;;4.31;100.00;100750.16;4827978;29;20248;-80
2022/01/23 13:59:47;;;;;;;5.67;4.80;;;;;;;4.29;100.00;100765.44;4843653;29;20541;-80
2022/01/23 14:02:29;;;;;;;4.80;4.00;;;;;;;4.23;100.00;100764.22;4828834;29;20185;-80
2022/01/23 14:05:11;;;;;;;4.83;4.03;;;;;;;4.24;100.00;100760.56;4843570;29;20530;-80
2022/01/23 14:07:41;;;;;;;4.40;4.00;;;;;;;4.27;100.00;100765.56;4842512;29;20492;-80
2022/01/23 14:10:30;;;;;;;4.73;4.23;;;;;;;4.21;100.00;100758.19;4824292;29;20600;-80
2022/01/23 14:13:15;;;;;;;4.93;4.30;;;;;;;4.19;100.00;100762.84;4809370;29;20205;-80
2022/01/23 14:15:48;;;;;;;5.20;4.70;;;;;;;4.22;100.00;100769.66;4808953;29;20225;-80
2022/01/23 14:18:22;;;;;;;5.00;4.43;;;;;;;4.11;100.00;100769.88;4824365;29;20185;-80
2022/01/23 14:21:00;;;;;;;5.50;4.40;;;;;;;4.11;100.00;100760.09;4806739;29;20202;-80
2022/01/23 14:23:28;;;;;;;4.70;4.23;;;;;;;4.22;100.00;100773.16;4822703;29;20246;-80
2022/01/23 14:25:59;;;;;;;6.43;4.80;;;;;;;4.06;100.00;100775.63;4793944;29;20200;-81
2022/01/23 14:28:39;;;;;;;4.90;4.50;;;;;;;4.10;100.00;100774.34;4824351;29;20205;-80
2022/01/23 14:31:17;;;;;;;5.27;4.77;;;;;;;4.00;100.00;100778.88;4809423;29;20197;-81
2022/01/23 14:33:47;;;;;;;4.57;3.87;;;;;;;3.98;100.00;100771.06;4824326;29;20190;-80
2022/01/23 14:36:30;;;;;;;4.93;4.43;;;;;;;4.08;100.00;100783.44;4823961;29;20264;-80
2022/01/23 14:38:59;;;;;;;5.13;4.63;;;;;;;3.89;100.00;100774.63;4823975;29;20237;-80
2022/01/23 14:41:33;;;;;;;4.90;4.40;;;;;;;3.95;100.00;100782.00;4825864;29;20189;-80
2022/01/23 14:44:00;;;;;;;4.57;4.17;;;;;;;3.94;100.00;100769.72;4841689;29;20197;-80
2022/01/23 14:46:27;;;;;;;6.10;4.77;;;;;;;3.83;100.00;100782.31;4835425;29;20250;-81
2022/01/23 14:48:59;;;;;;;5.00;4.43;;;;;;;3.75;100.00;100768.97;4826803;29;20207;-80
2022/01/23 14:51:29;;;;;;;6.13;5.10;;;;;;;3.68;100.00;100781.16;4842015;29;20201;-80
2022/01/23 14:53:56;;;;;;;5.30;4.80;;;;;;;3.64;100.00;100788.56;4826926;29;20188;-80
2022/01/23 14:56:25;;;;;;;5.57;5.00;;;;;;;3.66;100.00;100783.97;4842731;29;20514;-80
2022/01/23 14:58:51;;;;;;;5.50;4.93;;;;;;;3.60;100.00;100786.34;4835647;29;20200;-80
2022/01/23 15:01:18;;;;;;;6.00;5.10;;;;;;;3.46;100.00;100769.13;4823719;29;20204;-80
2022/01/23 15:03:52;;;;;;;6.93;5.60;;;;;;;3.48;100.00;100788.38;4823549;29;20274;-80
2022/01/23 15:06:29;;;;;;;5.97;5.10;;;;;;;3.53;100.00;100794.06;4823667;29;20178;-80
2022/01/23 15:09:11;;;;;;;6.17;5.00;;;;;;;3.60;100.00;100804.91;4823671;29;20190;-80
2022/01/23 15:11:38;;;;;;;5.83;5.23;;;;;;;3.64;100.00;100811.59;4822951;29;20197;-80
2022/01/23 15:14:06;;;;;;;5.50;4.93;;;;;;;3.45;100.00;100800.06;4824692;29;20186;-80
2022/01/23 15:16:34;;;;;;;6.33;5.30;;;;;;;3.46;100.00;100798.25;4834510;29;20226;-80
2022/01/23 15:19:01;;;;;;;5.93;5.17;;;;;;;3.48;100.00;100798.97;4841774;29;20205;-81
2022/01/23 15:21:27;;;;;;;5.97;5.37;;;;;;;3.36;100.00;100798.28;4841668;29;20188;-80
2022/01/23 15:23:57;;;;;;;6.40;5.80;;;;;;;3.32;100.00;100802.22;4842807;29;20494;-80
2022/01/23 15:26:27;;;;;;;5.70;5.10;;;;;;;3.35;100.00;100796.66;4841446;29;20208;-80
2022/01/23 15:28:54;;;;;;;5.80;5.10;;;;;;;3.36;100.00;100803.59;4826344;29;20208;-81
2022/01/23 15:31:22;;;;;;;6.17;5.43;;;;;;;3.30;100.00;100803.34;4841662;29;20586;-80